Terminal Aerodrome Forecast
Issued by NWS Spokane, WA

Home | Current Version | Previous Version | Text Only | Print | Product List | Glossary On
Versions: 1 2 3 4 5 6 7 8 9 10 11 12
000
FTUS46 KOTX 270528
TAFLWS
TAF
KLWS 270528Z 2706/2806 16008KT P6SM SCT050 SCT090 BKN200
     FM270800 26009KT P6SM SCT050 BKN070 BKN150
     FM271900 32009G15KT P6SM SCT050 SCT120 BKN200
     FM280400 17008KT P6SM FEW070 SCT150=

USA.gov is the U.S. government's official web portal to all federal, state and local government web resources and services.